sensor_id;sensor_type;location;lat;lon;timestamp;pressure;altitude;pressure_sealevel;temperature
70123;BMP280;57489;37.404;24.920;2023-03-14T00:00:18;100271.78;;;19.30
70123;BMP280;57489;37.404;24.920;2023-03-14T00:05:19;100278.34;;;19.32
70123;BMP280;57489;37.404;24.920;2023-03-14T00:10:20;100266.78;;;19.20
70123;BMP280;57489;37.404;24.920;2023-03-14T00:15:20;100261.31;;;19.25
70123;BMP280;57489;37.404;24.920;2023-03-14T00:20:21;100268.78;;;19.23
70123;BMP280;57489;37.404;24.920;2023-03-14T00:25:21;100252.22;;;19.26
70123;BMP280;57489;37.404;24.920;2023-03-14T00:30:22;100250.00;;;19.10
70123;BMP280;57489;37.404;24.920;2023-03-14T00:35:22;100247.94;;;18.99
70123;BMP280;57489;37.404;24.920;2023-03-14T00:40:22;100239.53;;;19.23
70123;BMP280;57489;37.404;24.920;2023-03-14T00:45:23;100260.19;;;19.17
70123;BMP280;57489;37.404;24.920;2023-03-14T00:50:23;100264.22;;;19.15
70123;BMP280;57489;37.404;24.920;2023-03-14T00:55:24;100249.06;;;19.15
70123;BMP280;57489;37.404;24.920;2023-03-14T01:00:25;100243.59;;;19.29
70123;BMP280;57489;37.404;24.920;2023-03-14T01:05:25;100230.59;;;19.19
70123;BMP280;57489;37.404;24.920;2023-03-14T01:10:26;100224.97;;;19.11
70123;BMP280;57489;37.404;24.920;2023-03-14T01:15:27;100208.72;;;19.22
70123;BMP280;57489;37.404;24.920;2023-03-14T01:20:27;100221.97;;;19.04
70123;BMP280;57489;37.404;24.920;2023-03-14T01:25:28;100211.19;;;19.09
70123;BMP280;57489;37.404;24.920;2023-03-14T01:30:28;100199.16;;;19.12
70123;BMP280;57489;37.404;24.920;2023-03-14T01:35:29;100198.38;;;19.11
70123;BMP280;57489;37.404;24.920;2023-03-14T01:40:29;100211.50;;;18.99
70123;BMP280;57489;37.404;24.920;2023-03-14T01:50:59;100199.44;;;19.02
70123;BMP280;57489;37.404;24.920;2023-03-14T01:56:01;100195.06;;;18.97
70123;BMP280;57489;37.404;24.920;2023-03-14T02:01:02;100214.59;;;18.93
70123;BMP280;57489;37.404;24.920;2023-03-14T02:06:05;100208.81;;;18.91
70123;BMP280;57489;37.404;24.920;2023-03-14T02:11:07;100210.25;;;18.88
70123;BMP280;57489;37.404;24.920;2023-03-14T02:16:08;100211.66;;;18.94
70123;BMP280;57489;37.404;24.920;2023-03-14T02:21:16;100203.97;;;18.84
70123;BMP280;57489;37.404;24.920;2023-03-14T02:26:22;100202.88;;;19.02
70123;BMP280;57489;37.404;24.920;2023-03-14T02:31:24;100221.78;;;18.83
70123;BMP280;57489;37.404;24.920;2023-03-14T02:36:25;100215.81;;;18.78
70123;BMP280;57489;37.404;24.920;2023-03-14T02:41:26;100233.50;;;18.74
70123;BMP280;57489;37.404;24.920;2023-03-14T02:46:27;100233.63;;;18.77
70123;BMP280;57489;37.404;24.920;2023-03-14T02:51:27;100246.94;;;18.77
70123;BMP280;57489;37.404;24.920;2023-03-14T02:56:28;100257.56;;;18.77
70123;BMP280;57489;37.404;24.920;2023-03-14T03:01:28;100241.19;;;18.84
70123;BMP280;57489;37.404;24.920;2023-03-14T03:06:29;100253.97;;;18.82
70123;BMP280;57489;37.404;24.920;2023-03-14T03:11:29;100251.69;;;18.89
70123;BMP280;57489;37.404;24.920;2023-03-14T03:16:30;100246.44;;;18.67
70123;BMP280;57489;37.404;24.920;2023-03-14T03:21:30;100247.84;;;18.73
70123;BMP280;57489;37.404;24.920;2023-03-14T03:26:31;100235.50;;;18.77
70123;BMP280;57489;37.404;24.920;2023-03-14T03:31:31;100245.69;;;18.75
70123;BMP280;57489;37.404;24.920;2023-03-14T03:36:32;100241.13;;;18.67
70123;BMP280;57489;37.404;24.920;2023-03-14T03:41:33;100231.63;;;18.74
70123;BMP280;57489;37.404;24.920;2023-03-14T03:46:34;100241.81;;;18.81
70123;BMP280;57489;37.404;24.920;2023-03-14T03:51:34;100235.97;;;18.62
70123;BMP280;57489;37.404;24.920;2023-03-14T03:56:34;100249.88;;;18.67
70123;BMP280;57489;37.404;24.920;2023-03-14T04:01:35;100240.84;;;18.77
70123;BMP280;57489;37.404;24.920;2023-03-14T04:06:36;100258.34;;;18.69
70123;BMP280;57489;37.404;24.920;2023-03-14T04:11:37;100264.25;;;18.66
70123;BMP280;57489;37.404;24.920;2023-03-14T04:16:38;100272.41;;;18.70
70123;BMP280;57489;37.404;24.920;2023-03-14T04:21:38;100268.03;;;18.74
70123;BMP280;57489;37.404;24.920;2023-03-14T04:26:39;100276.25;;;18.64
70123;BMP280;57489;37.404;24.920;2023-03-14T04:31:39;100286.16;;;18.72
70123;BMP280;57489;37.404;24.920;2023-03-14T04:36:40;100273.19;;;18.70
70123;BMP280;57489;37.404;24.920;2023-03-14T04:41:40;100297.91;;;18.48
70123;BMP280;57489;37.404;24.920;2023-03-14T04:46:40;100301.28;;;18.63
70123;BMP280;57489;37.404;24.920;2023-03-14T04:51:41;100288.97;;;18.67
70123;BMP280;57489;37.404;24.920;2023-03-14T04:56:41;100281.09;;;18.53
70123;BMP280;57489;37.404;24.920;2023-03-14T05:01:42;100284.03;;;18.51
70123;BMP280;57489;37.404;24.920;2023-03-14T05:06:42;100290.44;;;18.50
70123;BMP280;57489;37.404;24.920;2023-03-14T05:11:43;100291.41;;;18.54
70123;BMP280;57489;37.404;24.920;2023-03-14T05:16:43;100298.03;;;18.66
70123;BMP280;57489;37.404;24.920;2023-03-14T05:21:44;100296.28;;;18.61
70123;BMP280;57489;37.404;24.920;2023-03-14T05:26:44;100286.59;;;18.65
70123;BMP280;57489;37.404;24.920;2023-03-14T05:31:45;100289.44;;;18.69
70123;BMP280;57489;37.404;24.920;2023-03-14T05:36:45;100289.56;;;18.64
70123;BMP280;57489;37.404;24.920;2023-03-14T05:41:45;100282.06;;;18.66
70123;BMP280;57489;37.404;24.920;2023-03-14T05:46:46;100286.94;;;18.72
70123;BMP280;57489;37.404;24.920;2023-03-14T05:51:46;100281.41;;;18.60
70123;BMP280;57489;37.404;24.920;2023-03-14T05:56:47;100301.16;;;18.68
70123;BMP280;57489;37.404;24.920;2023-03-14T06:01:47;100305.41;;;18.46
70123;BMP280;57489;37.404;24.920;2023-03-14T06:06:48;100316.38;;;18.53
70123;BMP280;57489;37.404;24.920;2023-03-14T06:11:49;100321.66;;;18.45
70123;BMP280;57489;37.404;24.920;2023-03-14T06:16:49;100327.34;;;18.52
70123;BMP280;57489;37.404;24.920;2023-03-14T06:21:49;100335.91;;;18.71
70123;BMP280;57489;37.404;24.920;2023-03-14T06:26:50;100338.84;;;18.70
70123;BMP280;57489;37.404;24.920;2023-03-14T06:31:50;100338.56;;;19.11
70123;BMP280;57489;37.404;24.920;2023-03-14T06:36:51;100329.88;;;18.97
70123;BMP280;57489;37.404;24.920;2023-03-14T06:41:51;100333.00;;;18.90
70123;BMP280;57489;37.404;24.920;2023-03-14T06:46:52;100308.47;;;18.93
70123;BMP280;57489;37.404;24.920;2023-03-14T06:51:52;100317.50;;;18.92
70123;BMP280;57489;37.404;24.920;2023-03-14T06:56:53;100302.53;;;18.96
70123;BMP280;57489;37.404;24.920;2023-03-14T07:01:53;100308.88;;;19.18
70123;BMP280;57489;37.404;24.920;2023-03-14T07:06:53;100306.72;;;19.54
70123;BMP280;57489;37.404;24.920;2023-03-14T07:11:54;100313.44;;;19.78
70123;BMP280;57489;37.404;24.920;2023-03-14T07:16:54;100327.84;;;19.94
70123;BMP280;57489;37.404;24.920;2023-03-14T07:21:55;100304.66;;;20.03
70123;BMP280;57489;37.404;24.920;2023-03-14T07:26:55;100311.38;;;20.09
70123;BMP280;57489;37.404;24.920;2023-03-14T07:31:56;100318.16;;;20.07
70123;BMP280;57489;37.404;24.920;2023-03-14T07:36:56;100315.47;;;20.15
70123;BMP280;57489;37.404;24.920;2023-03-14T07:41:56;100306.19;;;20.30
70123;BMP280;57489;37.404;24.920;2023-03-14T07:46:57;100300.72;;;20.27
70123;BMP280;57489;37.404;24.920;2023-03-14T07:51:57;100320.44;;;20.26
70123;BMP280;57489;37.404;24.920;2023-03-14T07:56:58;100312.56;;;20.47
70123;BMP280;57489;37.404;24.920;2023-03-14T08:01:58;100314.34;;;20.34
70123;BMP280;57489;37.404;24.920;2023-03-14T08:06:59;100311.66;;;20.34
70123;BMP280;57489;37.404;24.920;2023-03-14T08:11:59;100301.44;;;20.53
70123;BMP280;57489;37.404;24.920;2023-03-14T08:17:00;100303.78;;;20.46
70123;BMP280;57489;37.404;24.920;2023-03-14T08:22:00;100302.97;;;20.54
70123;BMP280;57489;37.404;24.920;2023-03-14T08:27:01;100315.06;;;20.43
70123;BMP280;57489;37.404;24.920;2023-03-14T08:32:01;100305.00;;;20.66
70123;BMP280;57489;37.404;24.920;2023-03-14T08:37:02;100300.22;;;20.72
70123;BMP280;57489;37.404;24.920;2023-03-14T08:42:02;100307.69;;;20.57
70123;BMP280;57489;37.404;24.920;2023-03-14T08:47:03;100337.38;;;20.77
70123;BMP280;57489;37.404;24.920;2023-03-14T08:52:04;100328.88;;;20.92
70123;BMP280;57489;37.404;24.920;2023-03-14T08:57:05;100308.22;;;20.72
70123;BMP280;57489;37.404;24.920;2023-03-14T09:02:05;100288.72;;;20.80
70123;BMP280;57489;37.404;24.920;2023-03-14T09:07:06;100292.06;;;20.77
70123;BMP280;57489;37.404;24.920;2023-03-14T09:12:06;100299.78;;;20.99
70123;BMP280;57489;37.404;24.920;2023-03-14T09:17:07;100301.25;;;20.88
70123;BMP280;57489;37.404;24.920;2023-03-14T09:22:07;100286.41;;;21.08
70123;BMP280;57489;37.404;24.920;2023-03-14T09:27:08;100294.72;;;21.06
70123;BMP280;57489;37.404;24.920;2023-03-14T09:32:08;100276.28;;;21.13
70123;BMP280;57489;37.404;24.920;2023-03-14T09:37:09;100283.28;;;21.27
70123;BMP280;57489;37.404;24.920;2023-03-14T09:42:14;100278.63;;;20.94
70123;BMP280;57489;37.404;24.920;2023-03-14T09:47:16;100271.66;;;21.02
70123;BMP280;57489;37.404;24.920;2023-03-14T09:57:24;100257.00;;;21.16
70123;BMP280;57489;37.404;24.920;2023-03-14T10:02:30;100256.72;;;21.51
70123;BMP280;57489;37.404;24.920;2023-03-14T10:07:32;100251.91;;;21.44
70123;BMP280;57489;37.404;24.920;2023-03-14T10:12:34;100256.59;;;21.27
70123;BMP280;57489;37.404;24.920;2023-03-14T10:17:44;100245.72;;;21.32
70123;BMP280;57489;37.404;24.920;2023-03-14T10:22:50;100244.63;;;21.54
70123;BMP280;57489;37.404;24.920;2023-03-14T10:27:51;100241.59;;;21.55
70123;BMP280;57489;37.404;24.920;2023-03-14T10:32:51;100231.81;;;21.59
70123;BMP280;57489;37.404;24.920;2023-03-14T10:38:02;100230.81;;;21.31
70123;BMP280;57489;37.404;24.920;2023-03-14T10:43:05;100228.94;;;21.31
70123;BMP280;57489;37.404;24.920;2023-03-14T10:48:24;100197.25;;;21.42
70123;BMP280;57489;37.404;24.920;2023-03-14T10:53:26;100206.97;;;21.46
70123;BMP280;57489;37.404;24.920;2023-03-14T10:58:28;100195.25;;;21.39
70123;BMP280;57489;37.404;24.920;2023-03-14T11:03:32;100188.50;;;21.41
70123;BMP280;57489;37.404;24.920;2023-03-14T11:14:37;100169.03;;;21.41
70123;BMP280;57489;37.404;24.920;2023-03-14T11:25:21;100169.88;;;21.33
70123;BMP280;57489;37.404;24.920;2023-03-14T11:35:49;100151.41;;;21.28
70123;BMP280;57489;37.404;24.920;2023-03-14T11:40:53;100133.19;;;21.09
70123;BMP280;57489;37.404;24.920;2023-03-14T11:46:15;100120.28;;;21.32
70123;BMP280;57489;37.404;24.920;2023-03-14T11:51:23;100122.66;;;21.33
70123;BMP280;57489;37.404;24.920;2023-03-14T12:01:49;100117.31;;;21.33
70123;BMP280;57489;37.404;24.920;2023-03-14T12:06:52;100102.03;;;21.34
70123;BMP280;57489;37.404;24.920;2023-03-14T12:12:04;100097.16;;;21.23
70123;BMP280;57489;37.404;24.920;2023-03-14T12:22:41;100082.91;;;21.32
70123;BMP280;57489;37.404;24.920;2023-03-14T12:43:36;100046.47;;;21.60
70123;BMP280;57489;37.404;24.920;2023-03-14T12:48:38;100045.78;;;21.39
70123;BMP280;57489;37.404;24.920;2023-03-14T13:04:09;100037.09;;;21.54
70123;BMP280;57489;37.404;24.920;2023-03-14T13:14:31;100035.78;;;21.23
70123;BMP280;57489;37.404;24.920;2023-03-14T13:19:33;100034.75;;;21.16
70123;BMP280;57489;37.404;24.920;2023-03-14T13:24:34;100039.41;;;21.07
70123;BMP280;57489;37.404;24.920;2023-03-14T13:29:35;100027.31;;;21.21
70123;BMP280;57489;37.404;24.920;2023-03-14T13:34:35;100031.47;;;20.98
70123;BMP280;57489;37.404;24.920;2023-03-14T13:39:39;100016.28;;;21.23
70123;BMP280;57489;37.404;24.920;2023-03-14T13:44:40;100026.72;;;21.16
70123;BMP280;57489;37.404;24.920;2023-03-14T13:49:41;100018.38;;;21.17
70123;BMP280;57489;37.404;24.920;2023-03-14T13:54:42;100002.78;;;20.83
70123;BMP280;57489;37.404;24.920;2023-03-14T13:59:43;100001.84;;;20.79
70123;BMP280;57489;37.404;24.920;2023-03-14T14:04:43;100015.63;;;20.81
70123;BMP280;57489;37.404;24.920;2023-03-14T14:09:49;100011.34;;;20.67
70123;BMP280;57489;37.404;24.920;2023-03-14T14:15:23;100002.09;;;20.86
70123;BMP280;57489;37.404;24.920;2023-03-14T14:20:29;99990.41;;;20.78
70123;BMP280;57489;37.404;24.920;2023-03-14T14:25:30;99992.56;;;20.97
70123;BMP280;57489;37.404;24.920;2023-03-14T14:30:32;99984.53;;;20.85
70123;BMP280;57489;37.404;24.920;2023-03-14T14:35:34;99986.03;;;20.61
70123;BMP280;57489;37.404;24.920;2023-03-14T14:40:44;99977.88;;;20.91
70123;BMP280;57489;37.404;24.920;2023-03-14T14:45:48;99976.31;;;20.78
70123;BMP280;57489;37.404;24.920;2023-03-14T14:51:04;99965.47;;;20.95
70123;BMP280;57489;37.404;24.920;2023-03-14T14:56:21;99960.81;;;20.92
70123;BMP280;57489;37.404;24.920;2023-03-14T15:01:31;99954.81;;;20.62
70123;BMP280;57489;37.404;24.920;2023-03-14T15:06:33;99958.53;;;20.82
70123;BMP280;57489;37.404;24.920;2023-03-14T15:11:33;99972.97;;;20.81
70123;BMP280;57489;37.404;24.920;2023-03-14T15:16:34;99962.41;;;20.84
70123;BMP280;57489;37.404;24.920;2023-03-14T15:21:34;99960.34;;;20.90
70123;BMP280;57489;37.404;24.920;2023-03-14T15:26:34;99963.84;;;20.82
70123;BMP280;57489;37.404;24.920;2023-03-14T15:31:35;99955.84;;;20.82
70123;BMP280;57489;37.404;24.920;2023-03-14T15:36:36;99950.81;;;20.68
70123;BMP280;57489;37.404;24.920;2023-03-14T15:41:37;99965.13;;;20.63
70123;BMP280;57489;37.404;24.920;2023-03-14T15:46:37;99964.03;;;20.64
70123;BMP280;57489;37.404;24.920;2023-03-14T15:51:38;99950.25;;;20.62
70123;BMP280;57489;37.404;24.920;2023-03-14T15:56:38;99944.00;;;20.58
70123;BMP280;57489;37.404;24.920;2023-03-14T16:01:39;99944.81;;;20.38
70123;BMP280;57489;37.404;24.920;2023-03-14T16:06:39;99941.06;;;20.39
70123;BMP280;57489;37.404;24.920;2023-03-14T16:11:40;99952.91;;;20.29
70123;BMP280;57489;37.404;24.920;2023-03-14T16:16:40;99950.78;;;20.23
70123;BMP280;57489;37.404;24.920;2023-03-14T16:21:41;99945.03;;;20.12
70123;BMP280;57489;37.404;24.920;2023-03-14T16:26:41;99935.22;;;20.25
70123;BMP280;57489;37.404;24.920;2023-03-14T16:31:41;99934.13;;;20.26
70123;BMP280;57489;37.404;24.920;2023-03-14T16:36:42;99942.91;;;20.05
70123;BMP280;57489;37.404;24.920;2023-03-14T16:41:43;99944.66;;;20.01
70123;BMP280;57489;37.404;24.920;2023-03-14T16:46:43;99945.56;;;20.05
70123;BMP280;57489;37.404;24.920;2023-03-14T16:51:44;99942.97;;;19.76
70123;BMP280;57489;37.404;24.920;2023-03-14T16:56:44;99941.25;;;19.92
70123;BMP280;57489;37.404;24.920;2023-03-14T17:01:44;99928.81;;;19.84
70123;BMP280;57489;37.404;24.920;2023-03-14T17:06:45;99924.41;;;19.58
70123;BMP280;57489;37.404;24.920;2023-03-14T17:11:45;99935.56;;;19.73
70123;BMP280;57489;37.404;24.920;2023-03-14T17:16:46;99929.69;;;20.09
70123;BMP280;57489;37.404;24.920;2023-03-14T17:21:46;99927.47;;;20.65
70123;BMP280;57489;37.404;24.920;2023-03-14T17:26:47;99932.09;;;21.01
70123;BMP280;57489;37.404;24.920;2023-03-14T17:31:47;99938.34;;;21.17
70123;BMP280;57489;37.404;24.920;2023-03-14T17:36:48;99942.78;;;21.38
70123;BMP280;57489;37.404;24.920;2023-03-14T17:41:48;99934.78;;;21.38
70123;BMP280;57489;37.404;24.920;2023-03-14T17:46:49;99937.75;;;21.73
70123;BMP280;57489;37.404;24.920;2023-03-14T17:51:49;99948.94;;;21.91
70123;BMP280;57489;37.404;24.920;2023-03-14T17:56:50;99954.47;;;21.98
70123;BMP280;57489;37.404;24.920;2023-03-14T18:01:50;99951.78;;;22.10
70123;BMP280;57489;37.404;24.920;2023-03-14T18:06:50;99947.84;;;22.20
70123;BMP280;57489;37.404;24.920;2023-03-14T18:11:51;99945.09;;;21.76
70123;BMP280;57489;37.404;24.920;2023-03-14T18:16:51;99956.31;;;21.82
70123;BMP280;57489;37.404;24.920;2023-03-14T18:21:52;99961.78;;;21.85
70123;BMP280;57489;37.404;24.920;2023-03-14T18:26:52;99956.97;;;21.78
70123;BMP280;57489;37.404;24.920;2023-03-14T18:31:53;99953.25;;;21.67
70123;BMP280;57489;37.404;24.920;2023-03-14T18:36:53;99953.00;;;21.72
70123;BMP280;57489;37.404;24.920;2023-03-14T18:41:54;99946.56;;;21.61
70123;BMP280;57489;37.404;24.920;2023-03-14T18:46:54;99956.25;;;21.54
70123;BMP280;57489;37.404;24.920;2023-03-14T18:51:55;99953.03;;;21.48
70123;BMP280;57489;37.404;24.920;2023-03-14T18:56:55;99958.56;;;21.43
70123;BMP280;57489;37.404;24.920;2023-03-14T19:01:55;99961.25;;;21.43
70123;BMP280;57489;37.404;24.920;2023-03-14T19:06:56;99963.72;;;21.48
70123;BMP280;57489;37.404;24.920;2023-03-14T19:11:57;99953.69;;;21.33
70123;BMP280;57489;37.404;24.920;2023-03-14T19:16:57;99950.38;;;21.23
70123;BMP280;57489;37.404;24.920;2023-03-14T19:21:58;99950.16;;;21.04
70123;BMP280;57489;37.404;24.920;2023-03-14T19:26:58;99954.25;;;21.14
70123;BMP280;57489;37.404;24.920;2023-03-14T19:31:59;99954.91;;;21.11
70123;BMP280;57489;37.404;24.920;2023-03-14T19:36:59;99938.81;;;21.07
70123;BMP280;57489;37.404;24.920;2023-03-14T19:41:59;99929.22;;;21.18
70123;BMP280;57489;37.404;24.920;2023-03-14T19:47:00;99930.81;;;21.19
70123;BMP280;57489;37.404;24.920;2023-03-14T19:52:00;99928.91;;;21.44
70123;BMP280;57489;37.404;24.920;2023-03-14T19:57:01;99923.81;;;21.92
70123;BMP280;57489;37.404;24.920;2023-03-14T20:02:01;99918.66;;;21.99
70123;BMP280;57489;37.404;24.920;2023-03-14T20:07:02;99906.72;;;22.09
70123;BMP280;57489;37.404;24.920;2023-03-14T20:12:02;99901.81;;;22.26
70123;BMP280;57489;37.404;24.920;2023-03-14T20:17:03;99896.44;;;22.11
70123;BMP280;57489;37.404;24.920;2023-03-14T20:22:03;99896.94;;;22.28
70123;BMP280;57489;37.404;24.920;2023-03-14T20:27:03;99888.72;;;22.21
70123;BMP280;57489;37.404;24.920;2023-03-14T20:32:04;99879.88;;;22.05
70123;BMP280;57489;37.404;24.920;2023-03-14T20:37:05;99862.31;;;22.04
70123;BMP280;57489;37.404;24.920;2023-03-14T20:42:05;99866.19;;;22.07
70123;BMP280;57489;37.404;24.920;2023-03-14T20:47:06;99860.94;;;21.82
70123;BMP280;57489;37.404;24.920;2023-03-14T20:52:06;99855.88;;;21.77
70123;BMP280;57489;37.404;24.920;2023-03-14T20:57:06;99858.53;;;21.77
70123;BMP280;57489;37.404;24.920;2023-03-14T21:02:08;99854.94;;;21.85
70123;BMP280;57489;37.404;24.920;2023-03-14T21:07:09;99856.38;;;21.83
70123;BMP280;57489;37.404;24.920;2023-03-14T21:12:09;99843.53;;;21.72
70123;BMP280;57489;37.404;24.920;2023-03-14T21:17:10;99838.72;;;21.26
70123;BMP280;57489;37.404;24.920;2023-03-14T21:22:10;99851.88;;;21.59
70123;BMP280;57489;37.404;24.920;2023-03-14T21:27:11;99848.41;;;21.70
70123;BMP280;57489;37.404;24.920;2023-03-14T21:32:11;99845.09;;;21.61
70123;BMP280;57489;37.404;24.920;2023-03-14T21:37:12;99842.88;;;21.63
70123;BMP280;57489;37.404;24.920;2023-03-14T21:42:12;99832.19;;;21.63
70123;BMP280;57489;37.404;24.920;2023-03-14T21:47:14;99839.78;;;21.61
70123;BMP280;57489;37.404;24.920;2023-03-14T21:52:15;99821.84;;;21.62
70123;BMP280;57489;37.404;24.920;2023-03-14T21:57:16;99817.88;;;21.56
70123;BMP280;57489;37.404;24.920;2023-03-14T22:02:17;99816.25;;;21.39
70123;BMP280;57489;37.404;24.920;2023-03-14T22:07:18;99804.78;;;21.38
70123;BMP280;57489;37.404;24.920;2023-03-14T22:12:18;99796.75;;;20.98
70123;BMP280;57489;37.404;24.920;2023-03-14T22:17:19;99793.19;;;20.94
70123;BMP280;57489;37.404;24.920;2023-03-14T22:22:19;99774.28;;;20.99
70123;BMP280;57489;37.404;24.920;2023-03-14T22:27:20;99781.41;;;20.95
70123;BMP280;57489;37.404;24.920;2023-03-14T22:32:20;99767.09;;;20.87
70123;BMP280;57489;37.404;24.920;2023-03-14T22:37:21;99767.66;;;20.68
70123;BMP280;57489;37.404;24.920;2023-03-14T22:42:23;99762.19;;;20.65
70123;BMP280;57489;37.404;24.920;2023-03-14T22:47:23;99752.53;;;20.48
70123;BMP280;57489;37.404;24.920;2023-03-14T22:52:24;99748.63;;;20.46
70123;BMP280;57489;37.404;24.920;2023-03-14T22:57:24;99744.34;;;20.41
70123;BMP280;57489;37.404;24.920;2023-03-14T23:02:24;99747.41;;;20.31
70123;BMP280;57489;37.404;24.920;2023-03-14T23:07:25;99746.53;;;20.14
70123;BMP280;57489;37.404;24.920;2023-03-14T23:12:25;99750.75;;;19.95
70123;BMP280;57489;37.404;24.920;2023-03-14T23:17:26;99742.75;;;19.82
70123;BMP280;57489;37.404;24.920;2023-03-14T23:22:26;99733.47;;;19.68
70123;BMP280;57489;37.404;24.920;2023-03-14T23:27:27;99728.81;;;19.64
70123;BMP280;57489;37.404;24.920;2023-03-14T23:32:27;99717.94;;;19.57
70123;BMP280;57489;37.404;24.920;2023-03-14T23:37:28;99719.50;;;19.58
70123;BMP280;57489;37.404;24.920;2023-03-14T23:42:28;99720.22;;;19.47
70123;BMP280;57489;37.404;24.920;2023-03-14T23:47:29;99726.72;;;19.37
70123;BMP280;57489;37.404;24.920;2023-03-14T23:52:29;99706.75;;;19.31
70123;BMP280;57489;37.404;24.920;2023-03-14T23:57:30;99703.22;;;19.18
